createdAt,value
2023-01-31T00:01:48.106Z,95404.09
2023-01-31T00:04:14.886Z,95402.44
2023-01-31T00:06:45.191Z,95395.56
2023-01-31T00:09:13.054Z,95405.13
2023-01-31T00:11:40.369Z,95396.78
2023-01-31T00:14:08.866Z,95381.13
2023-01-31T00:16:36.218Z,95383.81
2023-01-31T00:19:04.318Z,95380.59
2023-01-31T00:21:31.834Z,95379.88
2023-01-31T00:24:00.160Z,95370.31
2023-01-31T00:26:31.132Z,95365.81
2023-01-31T00:29:00.933Z,95362.66
2023-01-31T00:31:30.168Z,95369.69
2023-01-31T00:33:57.703Z,95364.91
2023-01-31T00:36:28.527Z,95366.00
2023-01-31T00:38:58.164Z,95357.13
2023-01-31T00:41:26.911Z,95371.94
2023-01-31T00:43:53.872Z,95366.38
2023-01-31T00:46:22.319Z,95362.59
2023-01-31T00:48:50.041Z,95365.63
2023-01-31T00:51:17.100Z,95374.41
2023-01-31T00:53:43.884Z,95376.72
2023-01-31T00:56:19.004Z,95378.56
2023-01-31T00:58:46.204Z,95387.59
2023-01-31T01:01:18.724Z,95388.69
2023-01-31T01:03:46.623Z,95393.34
2023-01-31T01:06:14.440Z,95378.63
2023-01-31T01:08:43.426Z,95390.25
2023-01-31T01:11:20.371Z,95396.53
2023-01-31T01:13:47.890Z,95395.22
2023-01-31T01:16:25.420Z,95387.84
2023-01-31T01:18:54.996Z,95397.69
2023-01-31T01:21:25.297Z,95394.56
2023-01-31T01:23:52.756Z,95401.97
2023-01-31T01:26:27.069Z,95401.31
2023-01-31T01:28:56.236Z,95398.72
2023-01-31T01:31:30.578Z,95388.94
2023-01-31T01:34:16.947Z,95398.28
2023-01-31T01:36:46.883Z,95394.88
2023-01-31T01:39:14.772Z,95397.63
2023-01-31T01:41:41.957Z,95388.94
2023-01-31T01:44:43.432Z,95400.72
2023-01-31T01:47:40.649Z,95392.19
2023-01-31T01:50:30.351Z,95393.69
2023-01-31T01:53:06.092Z,95399.63
2023-01-31T01:55:44.199Z,95391.25
2023-01-31T01:58:27.737Z,95398.22
2023-01-31T02:01:00.531Z,95388.00
2023-01-31T02:03:27.369Z,95389.84
2023-01-31T02:06:05.034Z,95392.00
2023-01-31T02:08:36.095Z,95397.53
2023-01-31T02:11:07.555Z,95406.22
2023-01-31T02:13:34.961Z,95389.31
2023-01-31T02:16:01.699Z,95411.56
2023-01-31T02:18:29.322Z,95405.75
2023-01-31T02:21:23.055Z,95422.34
2023-01-31T02:24:34.167Z,95418.94
2023-01-31T02:27:17.974Z,95424.13
2023-01-31T02:30:54.702Z,95427.63
2023-01-31T02:33:31.243Z,95434.81
2023-01-31T02:37:01.064Z,95426.13
2023-01-31T02:40:02.377Z,95424.56
2023-01-31T02:42:46.011Z,95415.28
2023-01-31T02:45:38.107Z,95426.47
2023-01-31T02:48:34.628Z,95427.56
2023-01-31T02:51:20.839Z,95424.41
2023-01-31T02:53:55.697Z,95421.97
2023-01-31T02:56:29.266Z,95407.63
2023-01-31T02:59:22.088Z,95417.16
2023-01-31T03:01:57.459Z,95409.75
2023-01-31T03:04:24.205Z,95397.31
2023-01-31T03:07:02.341Z,95414.50
2023-01-31T03:09:40.071Z,95430.34
2023-01-31T03:12:51.927Z,95429.69
2023-01-31T03:15:56.164Z,95433.56
2023-01-31T03:19:02.499Z,95417.16
2023-01-31T03:21:42.308Z,95425.66
2023-01-31T03:24:09.676Z,95409.66
2023-01-31T03:26:36.913Z,95416.16
2023-01-31T03:29:06.395Z,95424.97
2023-01-31T03:31:39.331Z,95427.00
2023-01-31T03:34:11.576Z,95398.44
2023-01-31T03:37:08.827Z,95447.81
2023-01-31T03:40:06.173Z,95443.66
2023-01-31T03:42:50.695Z,95442.38
2023-01-31T03:45:27.208Z,95440.31
2023-01-31T03:47:55.351Z,95446.25
2023-01-31T03:50:31.376Z,95437.63
2023-01-31T03:53:38.423Z,95443.47
2023-01-31T03:56:10.717Z,95429.97
2023-01-31T03:58:50.910Z,95419.13
2023-01-31T04:01:20.665Z,95440.81
2023-01-31T04:03:59.010Z,95434.00
2023-01-31T04:06:27.373Z,95451.75
2023-01-31T04:08:54.783Z,95461.44
2023-01-31T04:11:25.808Z,95460.63
2023-01-31T04:13:52.791Z,95459.22
2023-01-31T04:16:20.017Z,95460.78
2023-01-31T04:18:46.779Z,95458.88
2023-01-31T04:21:15.495Z,95479.38
2023-01-31T04:23:42.358Z,95467.84
2023-01-31T04:26:09.116Z,95464.38
2023-01-31T04:28:35.855Z,95446.41
2023-01-31T04:31:02.636Z,95464.00
2023-01-31T04:33:29.439Z,95433.53
2023-01-31T04:35:56.318Z,95460.97
2023-01-31T04:38:23.157Z,95465.97
2023-01-31T04:40:49.881Z,95460.97
2023-01-31T04:43:17.172Z,95461.53
2023-01-31T04:45:43.925Z,95463.22
2023-01-31T04:48:10.687Z,95469.50
2023-01-31T04:50:37.462Z,95475.84
2023-01-31T04:53:04.958Z,95468.66
2023-01-31T04:55:31.885Z,95465.25
2023-01-31T04:57:58.647Z,95478.94
2023-01-31T05:00:25.552Z,95486.03
2023-01-31T05:02:53.280Z,95476.03
2023-01-31T05:05:21.495Z,95474.72
2023-01-31T05:07:48.502Z,95461.38
2023-01-31T05:10:16.127Z,95462.53
2023-01-31T05:12:42.870Z,95483.56
2023-01-31T05:15:11.846Z,95482.38
2023-01-31T05:17:38.974Z,95482.91
2023-01-31T05:20:06.792Z,95489.72
2023-01-31T05:22:34.053Z,95482.22
2023-01-31T05:25:00.799Z,95483.91
2023-01-31T05:27:27.734Z,95462.88
2023-01-31T05:29:55.174Z,95436.16
2023-01-31T05:32:22.063Z,95473.97
2023-01-31T05:34:48.840Z,95470.19
2023-01-31T05:37:15.610Z,95486.56
2023-01-31T05:39:42.406Z,95476.13
2023-01-31T05:42:09.169Z,95465.53
2023-01-31T05:44:35.904Z,95473.44
2023-01-31T05:47:02.684Z,95468.84
2023-01-31T05:49:33.627Z,95478.94
2023-01-31T05:52:01.265Z,95486.69
2023-01-31T05:54:28.350Z,95477.69
2023-01-31T05:56:55.179Z,95461.00
2023-01-31T05:59:21.987Z,95485.28
2023-01-31T06:01:48.813Z,95503.91
2023-01-31T06:04:15.768Z,95495.59
2023-01-31T06:06:42.820Z,95488.88
2023-01-31T06:09:09.716Z,95500.03
2023-01-31T06:11:36.520Z,95507.22
2023-01-31T06:14:03.395Z,95496.69
2023-01-31T06:16:30.745Z,95491.84
2023-01-31T06:18:57.959Z,95505.38
2023-01-31T06:21:24.786Z,95512.88
2023-01-31T06:23:51.617Z,95505.38
2023-01-31T06:26:18.425Z,95508.03
2023-01-31T06:28:46.295Z,95499.28
2023-01-31T06:31:13.797Z,95510.38
2023-01-31T06:33:47.775Z,95511.03
2023-01-31T06:36:18.997Z,95516.22
2023-01-31T06:38:50.985Z,95513.38
2023-01-31T06:41:21.382Z,95523.22
2023-01-31T06:43:48.513Z,95525.56
2023-01-31T06:46:15.378Z,95528.81
2023-01-31T06:48:42.223Z,95527.38
2023-01-31T06:51:08.973Z,95523.97
2023-01-31T06:53:36.071Z,95527.22
2023-01-31T06:56:02.847Z,95505.94
2023-01-31T06:58:29.621Z,95527.72
2023-01-31T07:00:56.844Z,95536.97
2023-01-31T07:03:23.700Z,95515.19
2023-01-31T07:05:50.470Z,95516.34
2023-01-31T07:08:17.265Z,95542.13
2023-01-31T07:10:44.143Z,95541.56
2023-01-31T07:13:10.910Z,95548.16
2023-01-31T07:15:37.727Z,95539.03
2023-01-31T07:18:04.843Z,95538.97
2023-01-31T07:20:32.249Z,95548.25
2023-01-31T07:22:59.542Z,95544.56
2023-01-31T07:25:27.543Z,95526.38
2023-01-31T07:27:54.396Z,95522.09
2023-01-31T07:30:22.506Z,95527.13
2023-01-31T07:32:49.273Z,95534.78
2023-01-31T07:35:16.095Z,95533.19
2023-01-31T07:37:43.668Z,95543.22
2023-01-31T07:40:15.706Z,95544.41
2023-01-31T07:42:42.793Z,95514.22
2023-01-31T07:45:23.018Z,95540.84
2023-01-31T07:47:50.536Z,95525.56
2023-01-31T07:50:17.904Z,95504.28
2023-01-31T07:52:44.799Z,95516.91
2023-01-31T07:55:11.585Z,95507.56
2023-01-31T07:57:38.341Z,95510.03
2023-01-31T08:00:25.874Z,95523.72
2023-01-31T08:03:11.289Z,95529.56
2023-01-31T08:05:38.052Z,95530.50
2023-01-31T08:08:10.789Z,95523.91
2023-01-31T08:10:37.838Z,95532.09
2023-01-31T08:13:06.422Z,95529.50
2023-01-31T08:15:34.331Z,95530.25
2023-01-31T08:18:02.074Z,95526.75
2023-01-31T08:20:30.631Z,95520.09
2023-01-31T08:23:00.537Z,95514.91
2023-01-31T08:25:31.929Z,95497.22
2023-01-31T08:28:00.410Z,95508.88
2023-01-31T08:30:28.631Z,95508.41
2023-01-31T08:32:56.403Z,95509.91
2023-01-31T08:35:23.275Z,95510.19
2023-01-31T08:37:50.026Z,95501.22
2023-01-31T08:40:17.236Z,95480.72
2023-01-31T08:42:44.053Z,95496.22
2023-01-31T08:45:11.084Z,95513.59
2023-01-31T08:47:38.947Z,95514.31
2023-01-31T08:50:15.817Z,95507.97
2023-01-31T08:52:54.230Z,95515.75
2023-01-31T08:55:22.489Z,95511.34
2023-01-31T08:57:59.305Z,95509.44
2023-01-31T09:00:27.915Z,95495.53
2023-01-31T09:02:59.117Z,95458.91
2023-01-31T09:05:28.953Z,95505.06
2023-01-31T09:07:55.891Z,95506.38
2023-01-31T09:10:23.302Z,95521.13
2023-01-31T09:12:50.185Z,95520.22
2023-01-31T09:15:17.767Z,95513.66
2023-01-31T09:17:44.681Z,95510.22
2023-01-31T09:20:11.920Z,95503.72
2023-01-31T09:22:38.717Z,95496.34
2023-01-31T09:25:06.275Z,95483.63
2023-01-31T09:27:33.324Z,95501.00
2023-01-31T09:30:00.258Z,95489.66
2023-01-31T09:32:27.285Z,95498.22
2023-01-31T09:34:54.013Z,95490.78
2023-01-31T09:37:20.737Z,95486.91
2023-01-31T09:39:47.565Z,95480.53
2023-01-31T09:42:32.105Z,95488.91
2023-01-31T09:45:15.519Z,95473.81
2023-01-31T09:47:49.694Z,95490.59
2023-01-31T09:50:26.316Z,95498.16
2023-01-31T09:52:53.895Z,95503.34
2023-01-31T09:55:32.234Z,95495.44
2023-01-31T09:58:32.101Z,95486.38
2023-01-31T10:01:30.668Z,95502.09
2023-01-31T10:04:02.670Z,95505.78
2023-01-31T10:06:57.206Z,95490.34
2023-01-31T10:09:36.039Z,95477.28
2023-01-31T10:12:22.895Z,95498.97
2023-01-31T10:15:01.625Z,95485.66
2023-01-31T10:17:33.483Z,95489.84
2023-01-31T10:20:06.096Z,95493.28
2023-01-31T10:22:42.288Z,95476.22
2023-01-31T10:25:40.738Z,95476.13
2023-01-31T10:28:17.009Z,95474.78
2023-01-31T10:30:55.815Z,95484.97
2023-01-31T10:34:07.044Z,95482.06
2023-01-31T10:36:40.884Z,95484.97
2023-01-31T10:39:21.423Z,95474.13
2023-01-31T10:42:06.957Z,95478.09
2023-01-31T10:44:58.605Z,95474.94
2023-01-31T10:47:41.882Z,95467.06
2023-01-31T10:50:57.374Z,95463.53
2023-01-31T10:54:05.460Z,95464.06
2023-01-31T10:56:38.949Z,95454.63
2023-01-31T10:59:25.313Z,95450.25
2023-01-31T11:01:52.590Z,95445.63
2023-01-31T11:04:30.824Z,95441.50
2023-01-31T11:07:01.582Z,95445.63
2023-01-31T11:09:34.840Z,95445.00
2023-01-31T11:12:05.844Z,95440.44
2023-01-31T11:14:33.213Z,95431.72
2023-01-31T11:17:24.151Z,95435.25
2023-01-31T11:19:56.283Z,95408.63
2023-01-31T11:22:33.475Z,95413.88
2023-01-31T11:25:04.383Z,95393.81
2023-01-31T11:27:40.541Z,95396.81
2023-01-31T11:30:22.278Z,95403.25
2023-01-31T11:32:50.156Z,95404.53
2023-01-31T11:35:16.800Z,95409.09
2023-01-31T11:38:03.113Z,95418.31
2023-01-31T11:40:37.249Z,95424.84
2023-01-31T11:43:10.613Z,95421.59
2023-01-31T11:45:46.474Z,95420.44
2023-01-31T11:48:17.529Z,95412.06
2023-01-31T11:50:56.388Z,95404.72
2023-01-31T11:53:33.757Z,95409.50
2023-01-31T11:56:14.239Z,95403.84
2023-01-31T11:58:43.231Z,95411.16
2023-01-31T12:01:17.709Z,95410.72
2023-01-31T12:04:01.907Z,95401.91
2023-01-31T12:06:34.747Z,95387.63
2023-01-31T12:09:24.395Z,95401.78
2023-01-31T12:12:08.047Z,95398.81
2023-01-31T12:14:41.303Z,95383.94
2023-01-31T12:17:15.206Z,95394.25
2023-01-31T12:20:26.528Z,95367.63
2023-01-31T12:23:03.339Z,95362.06
2023-01-31T12:25:55.811Z,95333.25
2023-01-31T12:29:04.571Z,95366.78
2023-01-31T12:32:13.192Z,95354.34
2023-01-31T12:35:00.142Z,95355.59
2023-01-31T12:37:58.772Z,95361.06
2023-01-31T12:40:52.528Z,95345.63
2023-01-31T12:43:42.012Z,95335.81
2023-01-31T12:46:20.289Z,95339.09
2023-01-31T12:49:23.622Z,95344.31
2023-01-31T12:52:19.889Z,95343.53
2023-01-31T12:55:33.571Z,95333.25
2023-01-31T12:58:28.364Z,95309.78
2023-01-31T13:01:17.214Z,95301.22
2023-01-31T13:04:05.893Z,95316.88
2023-01-31T13:06:39.322Z,95302.41
2023-01-31T13:09:24.479Z,95285.94
2023-01-31T13:12:03.780Z,95290.22
2023-01-31T13:14:41.878Z,95293.66
2023-01-31T13:17:13.900Z,95270.06
2023-01-31T13:19:54.060Z,95272.91
2023-01-31T13:22:30.571Z,95266.38
2023-01-31T13:25:24.053Z,95266.13
2023-01-31T13:28:01.396Z,95281.66
2023-01-31T13:30:40.917Z,95284.16
2023-01-31T13:33:24.698Z,95268.66
2023-01-31T13:36:23.039Z,95286.66
2023-01-31T13:38:50.139Z,95289.97
2023-01-31T13:41:32.365Z,95285.31
2023-01-31T13:44:01.190Z,95300.25
2023-01-31T13:46:42.480Z,95306.56
2023-01-31T13:49:35.344Z,95285.72
2023-01-31T13:52:15.287Z,95270.19
2023-01-31T13:54:53.371Z,95296.84
2023-01-31T13:57:34.599Z,95294.59
2023-01-31T14:00:27.153Z,95270.44
2023-01-31T14:03:07.851Z,95286.69
2023-01-31T14:05:56.917Z,95287.38
2023-01-31T14:08:32.568Z,95282.50
2023-01-31T14:11:14.312Z,95287.72
2023-01-31T14:13:50.179Z,95265.22
2023-01-31T14:16:42.404Z,95262.84
2023-01-31T14:19:23.996Z,95261.44
2023-01-31T14:22:12.452Z,95256.00
2023-01-31T14:24:53.381Z,95239.16
2023-01-31T14:27:40.100Z,95248.66
2023-01-31T14:30:07.094Z,95251.50
2023-01-31T14:33:13.293Z,95263.78
2023-01-31T14:35:57.763Z,95271.50
2023-01-31T14:39:02.730Z,95275.38
2023-01-31T14:41:57.226Z,95278.34
2023-01-31T14:44:45.640Z,95284.56
2023-01-31T14:47:39.875Z,95292.53
2023-01-31T14:50:42.957Z,95285.06
2023-01-31T14:53:39.018Z,95291.69
2023-01-31T14:56:51.664Z,95294.50
2023-01-31T14:59:35.577Z,95280.28
2023-01-31T15:02:43.345Z,95294.47
2023-01-31T15:05:17.800Z,95295.22
2023-01-31T15:08:11.824Z,95301.75
2023-01-31T15:11:03.237Z,95284.91
2023-01-31T15:13:54.220Z,95277.25
2023-01-31T15:16:32.111Z,95280.06
2023-01-31T15:19:13.191Z,95290.34
2023-01-31T15:21:53.277Z,95298.75
2023-01-31T15:24:47.543Z,95273.66
2023-01-31T15:27:20.354Z,95273.56
2023-01-31T15:29:59.065Z,95267.63
2023-01-31T15:32:42.293Z,95258.00
2023-01-31T15:35:27.177Z,95269.59
2023-01-31T15:38:18.241Z,95257.03
2023-01-31T15:40:45.018Z,95230.72
2023-01-31T15:43:25.229Z,95241.38
2023-01-31T15:45:52.706Z,95256.53
2023-01-31T15:48:22.190Z,95258.41
2023-01-31T15:50:56.663Z,95269.03
2023-01-31T15:53:31.425Z,95266.44
2023-01-31T15:56:02.838Z,95264.28
2023-01-31T15:58:31.225Z,95243.31
2023-01-31T16:01:00.560Z,95245.09
2023-01-31T16:03:35.783Z,95239.28
2023-01-31T16:06:03.851Z,95242.72
2023-01-31T16:08:37.006Z,95249.97
2023-01-31T16:11:09.859Z,95268.88
2023-01-31T16:13:40.298Z,95276.22
2023-01-31T16:16:10.687Z,95289.81
2023-01-31T16:18:38.555Z,95272.38
2023-01-31T16:21:31.541Z,95302.50
2023-01-31T16:24:19.128Z,95300.97
2023-01-31T16:27:14.857Z,95298.66
2023-01-31T16:29:46.839Z,95296.50
2023-01-31T16:32:25.254Z,95276.78
2023-01-31T16:35:08.219Z,95294.97
2023-01-31T16:37:43.707Z,95312.53
2023-01-31T16:40:23.418Z,95309.50
2023-01-31T16:42:50.233Z,95273.06
2023-01-31T16:45:28.374Z,95313.34
2023-01-31T16:47:56.558Z,95311.72
2023-01-31T16:50:42.397Z,95298.00
2023-01-31T16:53:27.012Z,95319.63
2023-01-31T16:56:15.649Z,95328.56
2023-01-31T16:59:02.832Z,95333.97
2023-01-31T17:01:32.924Z,95337.53
2023-01-31T17:04:18.716Z,95339.19
2023-01-31T17:07:02.718Z,95355.94
2023-01-31T17:09:29.578Z,95350.00
2023-01-31T17:11:56.950Z,95337.97
2023-01-31T17:14:24.439Z,95345.13
2023-01-31T17:16:54.415Z,95326.13
2023-01-31T17:19:21.214Z,95360.81
2023-01-31T17:21:50.206Z,95363.13
2023-01-31T17:24:22.652Z,95366.03
2023-01-31T17:26:50.178Z,95356.59
2023-01-31T17:29:18.241Z,95351.28
2023-01-31T17:31:45.047Z,95357.00
2023-01-31T17:34:14.396Z,95357.00
2023-01-31T17:36:42.267Z,95348.91
2023-01-31T17:39:09.398Z,95360.03
2023-01-31T17:41:37.620Z,95340.06
2023-01-31T17:44:06.648Z,95349.44
2023-01-31T17:46:33.875Z,95363.25
2023-01-31T17:49:00.640Z,95355.44
2023-01-31T17:51:27.437Z,95342.34
2023-01-31T17:53:54.231Z,95331.97
2023-01-31T17:56:21.317Z,95355.66
2023-01-31T17:58:49.436Z,95336.31
2023-01-31T18:01:16.514Z,95353.38
2023-01-31T18:03:43.601Z,95318.47
2023-01-31T18:06:10.834Z,95344.66
2023-01-31T18:08:37.940Z,95347.44
2023-01-31T18:11:09.983Z,95336.72
2023-01-31T18:13:38.153Z,95356.38
2023-01-31T18:16:12.343Z,95318.97
2023-01-31T18:18:43.955Z,95359.53
2023-01-31T18:21:15.902Z,95364.59
2023-01-31T18:23:43.102Z,95358.16
2023-01-31T18:26:11.307Z,95347.22
2023-01-31T18:28:38.099Z,95352.53
2023-01-31T18:31:10.551Z,95356.06
2023-01-31T18:33:38.048Z,95348.38
2023-01-31T18:36:06.106Z,95353.16
2023-01-31T18:38:33.097Z,95366.88
2023-01-31T18:41:02.617Z,95360.44
2023-01-31T18:43:30.177Z,95362.50
2023-01-31T18:45:56.923Z,95367.81
2023-01-31T18:48:24.015Z,95348.06
2023-01-31T18:50:50.744Z,95361.38
2023-01-31T18:53:17.528Z,95364.59
2023-01-31T18:55:44.254Z,95378.00
2023-01-31T18:58:10.979Z,95361.91
2023-01-31T19:00:37.772Z,95358.56
2023-01-31T19:03:04.582Z,95346.50
2023-01-31T19:05:31.328Z,95341.91
2023-01-31T19:07:58.049Z,95342.97
2023-01-31T19:10:24.784Z,95356.59
2023-01-31T19:12:51.692Z,95379.22
2023-01-31T19:15:18.590Z,95357.13
2023-01-31T19:17:45.435Z,95367.28
2023-01-31T19:20:12.756Z,95373.31
2023-01-31T19:22:39.522Z,95359.81
2023-01-31T19:25:09.204Z,95363.66
2023-01-31T19:27:35.935Z,95354.22
2023-01-31T19:30:02.917Z,95319.28
2023-01-31T19:32:31.112Z,95329.25
2023-01-31T19:34:57.895Z,95334.13
2023-01-31T19:37:24.632Z,95344.53
2023-01-31T19:39:51.384Z,95356.28
2023-01-31T19:42:18.157Z,95357.00
2023-01-31T19:44:44.947Z,95354.31
2023-01-31T19:47:11.735Z,95356.28
2023-01-31T19:49:38.516Z,95356.28
2023-01-31T19:52:05.396Z,95378.94
2023-01-31T19:54:32.141Z,95350.66
2023-01-31T19:56:58.889Z,95347.66
2023-01-31T19:59:25.641Z,95351.72
2023-01-31T20:01:52.420Z,95353.78
2023-01-31T20:04:19.233Z,95364.00
2023-01-31T20:06:46.180Z,95349.84
2023-01-31T20:09:20.284Z,95355.03
2023-01-31T20:11:47.251Z,95346.91
2023-01-31T20:14:13.992Z,95343.09
2023-01-31T20:16:40.842Z,95344.97
2023-01-31T20:19:07.780Z,95361.25
2023-01-31T20:21:34.715Z,95348.59
2023-01-31T20:24:01.642Z,95359.38
2023-01-31T20:26:29.855Z,95349.09
2023-01-31T20:28:57.045Z,95354.41
2023-01-31T20:31:24.150Z,95359.19
2023-01-31T20:33:52.455Z,95328.84
2023-01-31T20:36:19.237Z,95317.22
2023-01-31T20:38:46.027Z,95312.00
2023-01-31T20:41:15.094Z,95334.34
2023-01-31T20:43:42.674Z,95338.81
2023-01-31T20:46:12.792Z,95326.75
2023-01-31T20:48:41.014Z,95326.75
2023-01-31T20:51:08.625Z,95325.13
2023-01-31T20:53:35.923Z,95330.09
2023-01-31T20:56:09.608Z,95340.28
2023-01-31T20:58:39.431Z,95333.53
2023-01-31T21:01:07.808Z,95328.22
2023-01-31T21:03:36.010Z,95328.00
2023-01-31T21:06:04.338Z,95334.34
2023-01-31T21:08:35.748Z,95317.22
2023-01-31T21:11:08.065Z,95346.59
2023-01-31T21:13:36.116Z,95306.19
2023-01-31T21:16:06.697Z,95343.72
2023-01-31T21:18:38.081Z,95347.47
2023-01-31T21:21:09.955Z,95340.50
2023-01-31T21:23:39.093Z,95335.38
2023-01-31T21:26:09.911Z,95353.16
2023-01-31T21:28:37.675Z,95341.31
2023-01-31T21:31:08.786Z,95343.72
2023-01-31T21:33:36.392Z,95327.09
2023-01-31T21:36:11.434Z,95332.59
2023-01-31T21:38:39.841Z,95339.34
2023-01-31T21:41:25.376Z,95327.38
2023-01-31T21:43:52.257Z,95331.34
2023-01-31T21:46:19.423Z,95311.81
2023-01-31T21:48:46.353Z,95324.69
2023-01-31T21:51:15.974Z,95331.13
2023-01-31T21:53:43.485Z,95332.69
2023-01-31T21:56:19.669Z,95319.06
2023-01-31T21:58:46.921Z,95283.56
2023-01-31T22:01:20.614Z,95319.38
2023-01-31T22:03:50.608Z,95314.91
2023-01-31T22:06:21.087Z,95287.19
2023-01-31T22:08:53.156Z,95310.66
2023-01-31T22:11:20.573Z,95297.16
2023-01-31T22:13:51.637Z,95295.09
2023-01-31T22:16:21.807Z,95271.06
2023-01-31T22:18:49.427Z,95285.72
2023-01-31T22:21:36.947Z,95279.28
2023-01-31T22:24:07.284Z,95262.75
2023-01-31T22:26:44.909Z,95265.47
2023-01-31T22:29:15.674Z,95264.84
2023-01-31T22:31:43.951Z,95252.59
2023-01-31T22:34:15.093Z,95266.59
2023-01-31T22:36:41.898Z,95248.97
2023-01-31T22:39:11.923Z,95254.47
2023-01-31T22:41:38.677Z,95238.44
2023-01-31T22:44:05.543Z,95239.09
2023-01-31T22:46:32.423Z,95238.06
2023-01-31T22:48:59.378Z,95228.31
2023-01-31T22:51:28.399Z,95196.94
2023-01-31T22:53:57.635Z,95262.34
2023-01-31T22:56:30.647Z,95245.22
2023-01-31T22:59:00.266Z,95267.56
2023-01-31T23:01:32.095Z,95258.31
2023-01-31T23:04:02.564Z,95271.69
2023-01-31T23:06:29.655Z,95263.78
2023-01-31T23:08:57.538Z,95275.00
2023-01-31T23:11:24.767Z,95263.16
2023-01-31T23:13:51.836Z,95251.72
2023-01-31T23:16:43.963Z,95283.91
2023-01-31T23:19:11.674Z,95285.91
2023-01-31T23:21:42.985Z,95285.38
2023-01-31T23:24:11.540Z,95286.81
2023-01-31T23:26:38.747Z,95282.38
2023-01-31T23:29:05.557Z,95291.19
2023-01-31T23:31:32.648Z,95280.72
2023-01-31T23:34:00.768Z,95277.91
2023-01-31T23:36:28.351Z,95276.56
2023-01-31T23:38:55.270Z,95269.41
2023-01-31T23:41:22.045Z,95262.97
2023-01-31T23:43:48.758Z,95253.44
2023-01-31T23:46:15.573Z,95248.53
2023-01-31T23:48:43.432Z,95258.84
2023-01-31T23:51:10.281Z,95263.41
2023-01-31T23:53:37.037Z,95245.72
2023-01-31T23:56:04.183Z,95240.44
2023-01-31T23:58:30.973Z,95247.63
